No particular awareness of the weather is required.    There are no Weather-warnings


Meteo18 Weather Cam more information Meteo18 Weather Cam


Thunder radar more information blitzortung!


Rain radar more information rain snow radar


Visit our other weather sites:

Template documentation
and downloads

And another site



Weather Underground History page Text

Daily Summary for January 16, 2016 Units:  Metric    English   Both
« Previous Day
Next Day »
Daily Weekly Monthly Yearly Custom
  High: Low: Average:
Temperature: 2.7 °C -2.6 °C 0.5 °C
Dew Point: 1.5 °C -3.3 °C -0.6 °C
Humidity: 96 % 90 % 93 %
Wind Speed: 11.3 km/h 0.0 km/h 0.8 km/h
Wind Gust: 17.7 km/h - -
Wind:- - East
Pressure: 1028.7 hPa 1023.2 hPa -
Precipitation: 0.0 mm    
Historical Graphs
 
 
Tabular Data for January 16, 2016
Time Temperature Dew Point Pressure Wind Wind Speed Wind Gust Humidity Rainfall Rate (Hourly)
00:02 0.7 °C -0.8 °C 1023.2 hPa Calm   11.3 km/h 90 % 0.0 mm
00:07 0.6 °C -0.9 °C 1023.6 hPa ENE 1.6 km/h 11.3 km/h 90 % 0.0 mm
00:17 0.6 °C -0.9 °C 1023.6 hPa Calm   8.0 km/h 90 % 0.0 mm
00:22 0.6 °C -0.9 °C 1023.6 hPa NNE 3.2 km/h 9.7 km/h 90 % 0.0 mm
00:27 0.6 °C -0.9 °C 1023.6 hPa NE 4.8 km/h 9.7 km/h 90 % 0.0 mm
00:32 0.6 °C -0.9 °C 1023.9 hPa ENE 3.2 km/h 14.5 km/h 90 % 0.0 mm
00:37 0.6 °C -0.9 °C 1023.9 hPa NE 4.8 km/h 14.5 km/h 90 % 0.0 mm
00:42 0.7 °C -0.8 °C 1023.9 hPa East 4.8 km/h 9.7 km/h 90 % 0.0 mm
00:52 0.7 °C -0.8 °C 1023.9 hPa NNE 1.6 km/h 14.5 km/h 90 % 0.0 mm
00:57 0.7 °C -0.8 °C 1023.9 hPa NE 3.2 km/h 11.3 km/h 90 % 0.0 mm
01:02 0.6 °C -0.9 °C 1023.9 hPa NE 8.0 km/h 14.5 km/h 90 % 0.0 mm
01:12 0.6 °C -0.9 °C 1023.9 hPa East 4.8 km/h 17.7 km/h 90 % 0.0 mm
01:17 0.6 °C -0.9 °C 1023.9 hPa NE 3.2 km/h 17.7 km/h 90 % 0.0 mm
01:22 0.6 °C -0.9 °C 1024.3 hPa NNE 6.4 km/h 11.3 km/h 90 % 0.0 mm
01:37 0.4 °C -1.0 °C 1024.3 hPa NE 3.2 km/h 16.1 km/h 90 % 0.0 mm
01:42 0.4 °C -1.0 °C 1024.3 hPa NE 6.4 km/h 16.1 km/h 90 % 0.0 mm
01:52 0.3 °C -1.1 °C 1024.3 hPa NE 8.0 km/h 11.3 km/h 90 % 0.0 mm
02:02 0.2 °C -1.2 °C 1024.3 hPa NE 3.2 km/h 11.3 km/h 90 % 0.0 mm
02:07 0.2 °C -1.2 °C 1024.3 hPa ENE 6.4 km/h 11.3 km/h 90 % 0.0 mm
02:12 0.1 °C -1.3 °C 1024.3 hPa NNE 3.2 km/h 11.3 km/h 90 % 0.0 mm
02:17 0.1 °C -1.2 °C 1024.3 hPa ENE 3.2 km/h 11.3 km/h 91 % 0.0 mm
02:22 0.1 °C -1.2 °C 1024.3 hPa NE 3.2 km/h 11.3 km/h 91 % 0.0 mm
02:42 -0.1 °C -1.4 °C 1024.6 hPa NE 4.8 km/h 11.3 km/h 91 % 0.0 mm
02:47 -0.1 °C -1.4 °C 1024.9 hPa NE 1.6 km/h 9.7 km/h 91 % 0.0 mm
02:52 -0.1 °C -1.4 °C 1024.9 hPa NE 3.2 km/h 9.7 km/h 91 % 0.0 mm
02:57 -0.2 °C -1.5 °C 1024.9 hPa East 1.6 km/h 9.7 km/h 91 % 0.0 mm
03:02 -0.1 °C -1.4 °C 1024.9 hPa ENE 3.2 km/h 9.7 km/h 91 % 0.0 mm
03:12 -0.2 °C -1.5 °C 1024.9 hPa East 1.6 km/h 9.7 km/h 91 % 0.0 mm
03:22 -0.3 °C -1.6 °C 1024.6 hPa ENE 1.6 km/h 9.7 km/h 91 % 0.0 mm
03:32 -0.3 °C -1.6 °C 1024.6 hPa ENE 3.2 km/h 9.7 km/h 91 % 0.0 mm
03:37 -0.3 °C -1.6 °C 1024.9 hPa NE 3.2 km/h 11.3 km/h 91 % 0.0 mm
03:42 -0.2 °C -1.5 °C 1024.9 hPa NE 1.6 km/h 11.3 km/h 91 % 0.0 mm
03:47 -0.2 °C -1.5 °C 1024.9 hPa NE 1.6 km/h 14.5 km/h 91 % 0.0 mm
03:52 -0.2 °C -1.5 °C 1024.9 hPa Calm   14.5 km/h 91 % 0.0 mm
03:57 -0.2 °C -1.5 °C 1024.9 hPa NE 1.6 km/h 9.7 km/h 91 % 0.0 mm
04:02 -0.3 °C -1.6 °C 1024.9 hPa Calm   9.7 km/h 91 % 0.0 mm
04:07 -0.3 °C -1.6 °C 1024.9 hPa NNE 11.3 km/h 11.3 km/h 91 % 0.0 mm
04:12 -0.3 °C -1.6 °C 1024.9 hPa Calm   11.3 km/h 91 % 0.0 mm
04:17 -0.3 °C -1.6 °C 1024.9 hPa ENE 3.2 km/h 11.3 km/h 91 % 0.0 mm
04:22 -0.4 °C -1.7 °C 1024.9 hPa NE 3.2 km/h 11.3 km/h 91 % 0.0 mm
04:27 -0.4 °C -1.5 °C 1025.3 hPa East 6.4 km/h 12.9 km/h 92 % 0.0 mm
04:32 -0.4 °C -1.5 °C 1025.3 hPa ENE 1.6 km/h 12.9 km/h 92 % 0.0 mm
04:37 -0.4 °C -1.5 °C 1025.3 hPa SE 4.8 km/h 12.9 km/h 92 % 0.0 mm
04:42 -0.4 °C -1.5 °C 1025.3 hPa ENE 9.7 km/h 12.9 km/h 92 % 0.0 mm
04:47 -0.5 °C -1.6 °C 1025.6 hPa ENE 1.6 km/h 9.7 km/h 92 % 0.0 mm
04:52 -0.6 °C -1.7 °C 1025.6 hPa ENE 1.6 km/h 9.7 km/h 92 % 0.0 mm
04:57 -0.7 °C -1.8 °C 1025.6 hPa ENE 1.6 km/h 9.7 km/h 92 % 0.0 mm
05:02 -0.7 °C -1.8 °C 1025.6 hPa Calm   9.7 km/h 92 % 0.0 mm
05:12 -0.7 °C -1.8 °C 1026.0 hPa Calm   6.4 km/h 92 % 0.0 mm
05:17 -0.7 °C -1.8 °C 1026.0 hPa Calm   6.4 km/h 92 % 0.0 mm
05:22 -0.8 °C -1.9 °C 1026.0 hPa East 3.2 km/h 6.4 km/h 92 % 0.0 mm
05:27 -0.8 °C -1.9 °C 1026.0 hPa Calm   4.8 km/h 92 % 0.0 mm
05:32 -0.8 °C -1.9 °C 1026.0 hPa Calm   8.0 km/h 92 % 0.0 mm
05:37 -0.8 °C -1.9 °C 1026.0 hPa North 1.6 km/h 8.0 km/h 92 % 0.0 mm
05:42 -0.9 °C -1.9 °C 1026.0 hPa East 1.6 km/h 8.0 km/h 93 % 0.0 mm
05:47 -1.0 °C -2.1 °C 1026.0 hPa Calm   8.0 km/h 92 % 0.0 mm
05:57 -1.2 °C -2.2 °C 1026.0 hPa Calm   4.8 km/h 93 % 0.0 mm
06:02 -1.3 °C -2.3 °C 1026.0 hPa Calm   1.6 km/h 93 % 0.0 mm
06:12 -1.4 °C -2.2 °C 1026.0 hPa Calm   1.6 km/h 94 % 0.0 mm
06:17 -1.4 °C -2.2 °C 1026.0 hPa Calm   3.2 km/h 94 % 0.0 mm
06:22 -1.5 °C -2.3 °C 1026.0 hPa Calm   3.2 km/h 94 % 0.0 mm
06:27 -1.7 °C -2.7 °C 1026.0 hPa Calm   3.2 km/h 93 % 0.0 mm
06:32 -1.8 °C -2.8 °C 1026.0 hPa Calm   1.6 km/h 93 % 0.0 mm
06:37 -1.9 °C -2.7 °C 1026.0 hPa Calm   1.6 km/h 94 % 0.0 mm
06:42 -1.8 °C -2.6 °C 1026.0 hPa Calm     94 % 0.0 mm
06:47 -1.9 °C -2.7 °C 1026.0 hPa Calm     94 % 0.0 mm
06:52 -2.1 °C -2.9 °C 1026.3 hPa Calm     94 % 0.0 mm
06:57 -2.2 °C -3.0 °C 1026.0 hPa Calm     94 % 0.0 mm
07:02 -2.2 °C -2.9 °C 1026.3 hPa Calm     95 % 0.0 mm
07:07 -2.1 °C -2.8 °C 1026.3 hPa Calm     95 % 0.0 mm
07:12 -1.9 °C -2.5 °C 1026.3 hPa Calm     96 % 0.0 mm
07:17 -1.9 °C -2.6 °C 1026.3 hPa Calm   1.6 km/h 95 % 0.0 mm
07:22 -1.8 °C -2.5 °C 1026.3 hPa Calm   1.6 km/h 95 % 0.0 mm
07:27 -1.9 °C -2.6 °C 1026.3 hPa Calm   1.6 km/h 95 % 0.0 mm
07:32 -1.9 °C -2.6 °C 1026.3 hPa Calm   1.6 km/h 95 % 0.0 mm
07:37 -1.9 °C -2.6 °C 1026.3 hPa Calm   1.6 km/h 95 % 0.0 mm
07:42 -2.0 °C -2.7 °C 1026.3 hPa Calm   1.6 km/h 95 % 0.0 mm
07:47 -2.0 °C -2.7 °C 1026.6 hPa Calm     95 % 0.0 mm
07:52 -2.1 °C -2.8 °C 1026.6 hPa Calm   1.6 km/h 95 % 0.0 mm
07:57 -2.2 °C -2.9 °C 1026.6 hPa Calm   1.6 km/h 95 % 0.0 mm
08:02 -2.3 °C -3.0 °C 1026.6 hPa Calm   1.6 km/h 95 % 0.0 mm
08:12 -2.6 °C -3.3 °C 1027.0 hPa Calm     95 % 0.0 mm
08:17 -2.5 °C -3.2 °C 1027.0 hPa Calm     95 % 0.0 mm
08:22 -2.2 °C -2.8 °C 1027.0 hPa Calm   1.6 km/h 96 % 0.0 mm
08:32 -1.7 °C -2.3 °C 1027.3 hPa Calm   4.8 km/h 96 % 0.0 mm
08:37 -1.7 °C -2.4 °C 1027.3 hPa Calm   4.8 km/h 95 % 0.0 mm
08:42 -1.9 °C -2.6 °C 1027.3 hPa Calm   4.8 km/h 95 % 0.0 mm
08:52 -2.1 °C -2.8 °C 1027.3 hPa Calm     95 % 0.0 mm
08:57 -2.1 °C -2.8 °C 1027.3 hPa Calm     95 % 0.0 mm
09:07 -1.9 °C -2.6 °C 1027.3 hPa Calm     95 % 0.0 mm
09:12 -1.9 °C -2.6 °C 1027.3 hPa Calm     95 % 0.0 mm
09:17 -1.7 °C -2.3 °C 1027.3 hPa Calm     96 % 0.0 mm
09:22 -1.7 °C -2.3 °C 1027.3 hPa Calm     96 % 0.0 mm
09:32 -1.4 °C -2.0 °C 1027.3 hPa Calm   1.6 km/h 96 % 0.0 mm
09:37 -1.3 °C -1.9 °C 1027.3 hPa Calm   1.6 km/h 96 % 0.0 mm
09:42 -1.2 °C -1.8 °C 1027.3 hPa Calm   1.6 km/h 96 % 0.0 mm
09:47 -1.1 °C -1.7 °C 1027.3 hPa Calm   1.6 km/h 96 % 0.0 mm
09:52 -1.0 °C -1.6 °C 1027.3 hPa Calm   1.6 km/h 96 % 0.0 mm
10:02 -0.9 °C -1.6 °C 1027.3 hPa Calm   1.6 km/h 95 % 0.0 mm
10:12 -0.5 °C -1.1 °C 1027.3 hPa Calm   1.6 km/h 96 % 0.0 mm
10:22 0.2 °C -0.4 °C 1027.3 hPa Calm     96 % 0.0 mm
10:32 0.6 °C -0.3 °C 1027.7 hPa Calm   1.6 km/h 94 % 0.0 mm
10:37 0.6 °C -0.4 °C 1027.7 hPa Calm   4.8 km/h 93 % 0.0 mm
10:42 0.7 °C -0.3 °C 1027.7 hPa NE 1.6 km/h 4.8 km/h 93 % 0.0 mm
10:47 0.9 °C -0.1 °C 1027.7 hPa Calm   3.2 km/h 93 % 0.0 mm
10:57 1.2 °C 0.0 °C 1027.7 hPa NE 3.2 km/h 6.4 km/h 92 % 0.0 mm
11:07 1.2 °C 0.0 °C 1027.7 hPa Calm   6.4 km/h 92 % 0.0 mm
11:12 1.4 °C 0.2 °C 1028.0 hPa Calm   4.8 km/h 92 % 0.0 mm
11:17 1.5 °C 0.3 °C 1028.0 hPa Calm   4.8 km/h 92 % 0.0 mm
11:27 1.4 °C 0.2 °C 1028.0 hPa Calm   3.2 km/h 92 % 0.0 mm
11:37 1.6 °C 0.4 °C 1028.0 hPa Calm   3.2 km/h 92 % 0.0 mm
11:42 1.7 °C 0.5 °C 1028.3 hPa Calm   1.6 km/h 92 % 0.0 mm
11:47 1.8 °C 0.6 °C 1028.3 hPa Calm   1.6 km/h 92 % 0.0 mm
11:52 1.8 °C 0.6 °C 1028.0 hPa Calm   1.6 km/h 92 % 0.0 mm
11:57 1.8 °C 0.6 °C 1028.0 hPa Calm   3.2 km/h 92 % 0.0 mm
12:02 1.8 °C 0.6 °C 1028.3 hPa Calm   3.2 km/h 92 % 0.0 mm
12:07 1.8 °C 0.6 °C 1028.0 hPa Calm   3.2 km/h 92 % 0.0 mm
12:12 1.8 °C 0.6 °C 1028.3 hPa Calm   1.6 km/h 92 % 0.0 mm
12:17 1.8 °C 0.5 °C 1028.3 hPa Calm   1.6 km/h 91 % 0.0 mm
12:22 1.8 °C 0.6 °C 1028.3 hPa Calm   3.2 km/h 92 % 0.0 mm
12:27 1.8 °C 0.5 °C 1028.0 hPa Calm   3.2 km/h 91 % 0.0 mm
12:32 1.7 °C 0.5 °C 1028.0 hPa Calm   3.2 km/h 92 % 0.0 mm
12:37 1.8 °C 0.6 °C 1028.0 hPa South 3.2 km/h 3.2 km/h 92 % 0.0 mm
12:42 1.8 °C 0.6 °C 1028.0 hPa Calm   3.2 km/h 92 % 0.0 mm
12:47 1.8 °C 0.6 °C 1028.3 hPa Calm   3.2 km/h 92 % 0.0 mm
12:52 1.8 °C 0.6 °C 1028.0 hPa Calm   3.2 km/h 92 % 0.0 mm
12:57 1.7 °C 0.5 °C 1028.0 hPa Calm   3.2 km/h 92 % 0.0 mm
13:02 1.7 °C 0.5 °C 1028.3 hPa Calm   3.2 km/h 92 % 0.0 mm
13:12 1.7 °C 0.5 °C 1028.3 hPa Calm   3.2 km/h 92 % 0.0 mm
13:22 1.8 °C 0.6 °C 1028.3 hPa Calm   3.2 km/h 92 % 0.0 mm
13:32 1.8 °C 0.8 °C 1028.3 hPa Calm   3.2 km/h 93 % 0.0 mm
13:37 1.9 °C 0.9 °C 1028.3 hPa Calm   1.6 km/h 93 % 0.0 mm
13:42 2.0 °C 0.8 °C 1028.0 hPa Calm   1.6 km/h 92 % 0.0 mm
13:47 2.1 °C 0.9 °C 1028.0 hPa Calm   1.6 km/h 92 % 0.0 mm
13:52 2.2 °C 1.0 °C 1028.0 hPa Calm   1.6 km/h 92 % 0.0 mm
13:57 2.2 °C 1.0 °C 1028.0 hPa Calm   1.6 km/h 92 % 0.0 mm
14:02 2.2 °C 0.9 °C 1028.0 hPa Calm   3.2 km/h 91 % 0.0 mm
14:07 2.2 °C 0.9 °C 1028.0 hPa SW 1.6 km/h 3.2 km/h 91 % 0.0 mm
14:12 2.2 °C 1.0 °C 1028.0 hPa Calm   4.8 km/h 92 % 0.0 mm
14:17 2.2 °C 1.0 °C 1027.7 hPa Calm   4.8 km/h 92 % 0.0 mm
14:22 2.2 °C 1.0 °C 1027.7 hPa Calm   4.8 km/h 92 % 0.0 mm
14:27 2.3 °C 1.1 °C 1027.7 hPa SSW 1.6 km/h 4.8 km/h 92 % 0.0 mm
14:32 2.4 °C 1.2 °C 1027.7 hPa Calm   3.2 km/h 92 % 0.0 mm
14:37 2.4 °C 1.1 °C 1027.7 hPa Calm   3.2 km/h 91 % 0.0 mm
14:42 2.5 °C 1.3 °C 1027.7 hPa Calm   3.2 km/h 92 % 0.0 mm
14:47 2.7 °C 1.5 °C 1027.7 hPa Calm   1.6 km/h 92 % 0.0 mm
14:52 2.7 °C 1.4 °C 1027.7 hPa Calm   1.6 km/h 91 % 0.0 mm
14:57 2.6 °C 1.3 °C 1027.7 hPa Calm   3.2 km/h 91 % 0.0 mm
15:02 2.6 °C 1.3 °C 1027.7 hPa Calm   3.2 km/h 91 % 0.0 mm
15:07 2.6 °C 1.3 °C 1027.7 hPa Calm   3.2 km/h 91 % 0.0 mm
15:12 2.6 °C 1.4 °C 1027.7 hPa Calm   1.6 km/h 92 % 0.0 mm
15:17 2.7 °C 1.5 °C 1027.7 hPa Calm   1.6 km/h 92 % 0.0 mm
15:22 2.7 °C 1.4 °C 1027.7 hPa Calm   1.6 km/h 91 % 0.0 mm
15:32 2.7 °C 1.4 °C 1027.7 hPa Calm   3.2 km/h 91 % 0.0 mm
15:37 2.7 °C 1.4 °C 1027.7 hPa Calm   3.2 km/h 91 % 0.0 mm
15:42 2.7 °C 1.4 °C 1027.7 hPa Calm   1.6 km/h 91 % 0.0 mm
15:47 2.7 °C 1.2 °C 1027.7 hPa Calm   1.6 km/h 90 % 0.0 mm
15:57 2.6 °C 1.1 °C 1028.0 hPa Calm   3.2 km/h 90 % 0.0 mm
16:02 2.6 °C 1.1 °C 1028.0 hPa Calm   3.2 km/h 90 % 0.0 mm
16:07 2.5 °C 1.0 °C 1027.7 hPa Calm   3.2 km/h 90 % 0.0 mm
16:12 2.5 °C 1.2 °C 1027.7 hPa Calm   3.2 km/h 91 % 0.0 mm
16:17 2.5 °C 1.2 °C 1027.7 hPa Calm   1.6 km/h 91 % 0.0 mm
16:22 2.5 °C 1.2 °C 1027.7 hPa Calm   3.2 km/h 91 % 0.0 mm
16:32 2.4 °C 0.9 °C 1027.7 hPa Calm   3.2 km/h 90 % 0.0 mm
16:42 2.3 °C 1.0 °C 1027.7 hPa SW 1.6 km/h 3.2 km/h 91 % 0.0 mm
16:47 2.2 °C 0.9 °C 1028.0 hPa Calm   3.2 km/h 91 % 0.0 mm
16:52 2.2 °C 0.9 °C 1028.0 hPa SW 1.6 km/h 3.2 km/h 91 % 0.0 mm
17:02 2.1 °C 0.8 °C 1027.7 hPa Calm   3.2 km/h 91 % 0.0 mm
17:07 2.0 °C 0.7 °C 1028.0 hPa Calm   3.2 km/h 91 % 0.0 mm
17:12 1.9 °C 0.6 °C 1028.0 hPa Calm   1.6 km/h 91 % 0.0 mm
17:17 1.9 °C 0.6 °C 1028.0 hPa Calm   1.6 km/h 91 % 0.0 mm
17:22 1.8 °C 0.5 °C 1028.0 hPa SW 3.2 km/h 3.2 km/h 91 % 0.0 mm
17:32 1.8 °C 0.5 °C 1028.0 hPa SW 1.6 km/h 3.2 km/h 91 % 0.0 mm
17:37 1.7 °C 0.4 °C 1028.0 hPa Calm   3.2 km/h 91 % 0.0 mm
17:42 1.7 °C 0.4 °C 1028.0 hPa Calm   1.6 km/h 91 % 0.0 mm
17:47 1.7 °C 0.4 °C 1028.0 hPa Calm   1.6 km/h 91 % 0.0 mm
17:52 1.7 °C 0.4 °C 1028.0 hPa Calm   1.6 km/h 91 % 0.0 mm
17:57 1.6 °C 0.4 °C 1028.0 hPa SW 1.6 km/h 1.6 km/h 92 % 0.0 mm
18:02 1.6 °C 0.4 °C 1028.0 hPa SW 1.6 km/h 1.6 km/h 92 % 0.0 mm
18:12 1.6 °C 0.4 °C 1028.3 hPa Calm   1.6 km/h 92 % 0.0 mm
18:17 1.5 °C 0.3 °C 1028.3 hPa Calm   1.6 km/h 92 % 0.0 mm
18:22 1.5 °C 0.3 °C 1028.3 hPa SW 1.6 km/h 1.6 km/h 92 % 0.0 mm
18:27 1.5 °C 0.3 °C 1028.3 hPa SW 1.6 km/h 1.6 km/h 92 % 0.0 mm
18:32 1.5 °C 0.5 °C 1028.3 hPa Calm   3.2 km/h 93 % 0.0 mm
18:42 1.5 °C 0.5 °C 1028.3 hPa Calm   1.6 km/h 93 % 0.0 mm
18:47 1.4 °C 0.4 °C 1028.3 hPa Calm   1.6 km/h 93 % 0.0 mm
18:52 1.4 °C 0.4 °C 1028.3 hPa Calm   1.6 km/h 93 % 0.0 mm
18:57 1.4 °C 0.4 °C 1028.3 hPa Calm   1.6 km/h 93 % 0.0 mm
19:02 1.4 °C 0.4 °C 1028.3 hPa Calm   1.6 km/h 93 % 0.0 mm
19:07 1.4 °C 0.5 °C 1028.3 hPa Calm   1.6 km/h 94 % 0.0 mm
19:12 1.5 °C 0.6 °C 1028.3 hPa SW 1.6 km/h 1.6 km/h 94 % 0.0 mm
19:17 1.5 °C 0.5 °C 1028.3 hPa Calm   1.6 km/h 93 % 0.0 mm
19:22 1.5 °C 0.5 °C 1028.3 hPa Calm   1.6 km/h 93 % 0.0 mm
19:32 1.6 °C 0.7 °C 1028.7 hPa Calm   3.2 km/h 94 % 0.0 mm
19:37 1.6 °C 0.7 °C 1028.7 hPa Calm   3.2 km/h 94 % 0.0 mm
19:42 1.5 °C 0.5 °C 1028.3 hPa Calm   3.2 km/h 93 % 0.0 mm
19:47 1.4 °C 0.4 °C 1028.3 hPa Calm   1.6 km/h 93 % 0.0 mm
19:52 1.3 °C 0.3 °C 1028.3 hPa WSW 1.6 km/h 1.6 km/h 93 % 0.0 mm
20:02 1.2 °C 0.2 °C 1028.3 hPa Calm   1.6 km/h 93 % 0.0 mm
20:07 1.1 °C 0.2 °C 1028.3 hPa South 3.2 km/h 3.2 km/h 94 % 0.0 mm
20:12 1.2 °C 0.3 °C 1028.3 hPa SSW 1.6 km/h 3.2 km/h 94 % 0.0 mm
20:17 1.2 °C 0.3 °C 1028.3 hPa Calm   4.8 km/h 94 % 0.0 mm
20:22 1.3 °C 0.3 °C 1028.3 hPa SW 1.6 km/h 6.4 km/h 93 % 0.0 mm
20:32 1.3 °C 0.1 °C 1028.3 hPa Calm   3.2 km/h 92 % 0.0 mm
20:37 1.2 °C 0.0 °C 1028.3 hPa Calm   3.2 km/h 92 % 0.0 mm
20:42 1.2 °C 0.2 °C 1028.7 hPa Calm   1.6 km/h 93 % 0.0 mm
20:52 0.8 °C -0.4 °C 1028.7 hPa Calm   1.6 km/h 92 % 0.0 mm
20:57 0.6 °C -0.5 °C 1028.7 hPa Calm   1.6 km/h 92 % 0.0 mm
21:07 0.2 °C -0.8 °C 1028.3 hPa Calm     93 % 0.0 mm
21:12 -0.1 °C -1.1 °C 1028.3 hPa Calm   1.6 km/h 93 % 0.0 mm
21:17 -0.2 °C -1.2 °C 1028.3 hPa Calm   1.6 km/h 93 % 0.0 mm
21:22 -0.3 °C -1.1 °C 1028.3 hPa Calm     94 % 0.0 mm
21:27 -0.4 °C -1.1 °C 1028.3 hPa Calm     95 % 0.0 mm
21:37 -0.1 °C -0.8 °C 1028.3 hPa Calm   1.6 km/h 95 % 0.0 mm
21:42 -0.1 °C -0.8 °C 1028.3 hPa Calm   1.6 km/h 95 % 0.0 mm
21:47 0.0 °C -0.6 °C 1028.3 hPa Calm   1.6 km/h 96 % 0.0 mm
21:52 0.2 °C -0.4 °C 1028.3 hPa Calm   1.6 km/h 96 % 0.0 mm
21:57 0.3 °C -0.3 °C 1028.3 hPa Calm   1.6 km/h 96 % 0.0 mm
22:02 0.4 °C -0.3 °C 1028.3 hPa Calm   1.6 km/h 95 % 0.0 mm
22:07 0.4 °C -0.3 °C 1028.3 hPa Calm   1.6 km/h 95 % 0.0 mm
22:12 0.4 °C -0.3 °C 1028.3 hPa Calm   1.6 km/h 95 % 0.0 mm
22:17 0.4 °C -0.3 °C 1028.3 hPa Calm   1.6 km/h 95 % 0.0 mm
22:22 0.2 °C -0.7 °C 1028.3 hPa Calm   1.6 km/h 94 % 0.0 mm
22:27 0.2 °C -0.5 °C 1028.3 hPa Calm   1.6 km/h 95 % 0.0 mm
22:32 0.3 °C -0.4 °C 1028.3 hPa Calm   1.6 km/h 95 % 0.0 mm
22:37 0.4 °C -0.3 °C 1028.3 hPa Calm   1.6 km/h 95 % 0.0 mm
22:42 0.4 °C -0.3 °C 1028.3 hPa Calm   1.6 km/h 95 % 0.0 mm
22:47 0.3 °C -0.4 °C 1028.3 hPa Calm   1.6 km/h 95 % 0.0 mm
22:52 0.1 °C -0.8 °C 1028.3 hPa Calm   1.6 km/h 94 % 0.0 mm
22:57 -0.2 °C -1.0 °C 1028.3 hPa Calm   1.6 km/h 94 % 0.0 mm
23:02 -0.3 °C -1.0 °C 1028.3 hPa Calm     95 % 0.0 mm
23:07 -0.2 °C -0.9 °C 1028.3 hPa Calm     95 % 0.0 mm
23:12 -0.1 °C -0.7 °C 1028.3 hPa Calm     96 % 0.0 mm
23:17 0.2 °C -0.4 °C 1028.3 hPa Calm     96 % 0.0 mm
23:22 0.3 °C -0.3 °C 1028.3 hPa Calm   1.6 km/h 96 % 0.0 mm
23:32 0.4 °C -0.2 °C 1028.3 hPa Calm   1.6 km/h 96 % 0.0 mm
23:37 0.4 °C -0.2 °C 1028.3 hPa Calm     96 % 0.0 mm
23:42 0.3 °C -0.4 °C 1028.3 hPa Calm     95 % 0.0 mm
23:52 0.0 °C -0.7 °C 1028.3 hPa Calm     95 % 0.0 mm
Meteo18
Compliments of Weather Underground - 4 mb

Script developed by  Jim McMurry - jmcmurry@mwt.net Adapted for the template by  Wim van der Kuil - Leuven-Template.eu

You find our weather info also at:

European Weather Network

Weather Underground

Equipment we use:

Weather-station
Davis Vue

Weather-program
Meteohub

Weather-server
Raspberry PI 2 B+

Provider
1 and 1

Davis Vue

Meteohub

Raspberry PI 2 B+

1 and 1